Date,TemperatureHighF,TemperatureAvgF,TemperatureLowF,DewpointHighF,DewpointAvgF,DewpointLowF,HumidityHigh,HumidityAvg,HumidityLow,PressureMaxIn,PressureMinIn,WindSpeedMaxMPH,WindSpeedAvgMPH,GustSpeedMaxMPH,PrecipitationSumIn
2013-9-1,89,77,67,70,64,58,91,67,39,29.87,29.68,18,4,22,0.00
2013-9-2,82,69,59,61,56,52,89,67,39,29.97,29.86,16,4,16,0.00
2013-9-3,88,66,51,60,53,48,92,67,30,30.06,29.96,10,1,10,0.00
2013-9-4,94,74,56,65,58,50,82,61,36,30.09,29.99,10,1,10,0.00
2013-9-5,99,81,64,68,64,58,84,59,36,30.12,30.04,8,1,8,0.00
2013-9-6,98,79,64,70,61,57,81,57,31,30.09,29.91,15,2,15,0.00
2013-9-7,103,83,68,71,65,58,72,56,35,29.93,29.77,20,4,20,0.00
2013-9-8,98,82,70,77,71,66,89,72,48,29.86,29.78,12,1,12,0.00
2013-9-9,104,87,72,71,67,61,89,58,30,29.84,29.74,22,5,22,0.00
2013-9-10,102,85,70,67,63,60,75,51,25,29.95,29.84,22,5,22,0.00
2013-9-11,86,79,73,74,68,64,86,70,55,30.03,29.95,13,2,13,0.00
2013-9-12,82,72,61,68,59,47,90,69,32,30.09,29.98,22,4,22,0.00
2013-9-13,79,63,51,52,46,41,82,58,31,30.16,30.03,10,2,10,0.00
2013-9-14,82,62,45,53,45,38,80,56,30,30.10,29.90,29,2,29,0.00
2013-9-15,70,63,56,63,55,47,87,74,56,30.15,29.84,14,4,14,0.00
2013-9-16,66,58,51,57,53,49,93,84,71,30.28,30.14,13,1,13,0.00
2013-9-17,67,60,53,62,55,49,91,86,80,30.20,29.96,10,1,10,0.00
2013-9-18,93,76,63,72,66,61,93,74,49,29.98,29.74,29,6,29,0.00
2013-9-19,96,77,65,72,66,61,90,73,43,29.82,29.65,27,6,27,0.00
2013-9-20,73,64,56,63,54,0,92,73,51,29.91,29.79,14,3,14,0.00
2013-9-21,75,59,46,51,47,41,83,66,43,29.96,29.84,14,2,14,0.00
2013-9-22,83,62,46,58,50,43,90,67,39,29.96,29.84,10,1,106,0.00
2013-9-23,79,58,0,58,48,-18,85,70,40,29.94,29.82,12,1,12,0.00
2013-9-24,85,66,51,63,54,46,83,67,42,29.87,29.75,14,1,14,0.00
2013-9-25,89,68,54,64,56,50,87,69,42,29.87,29.78,10,1,10,0.00
2013-9-26,89,71,55,66,59,50,85,68,43,29.91,29.82,17,2,17,0.00
2013-9-27,90,73,62,68,61,57,85,68,43,29.97,29.86,19,3,19,0.00
2013-9-28,70,63,50,66,58,48,92,84,69,29.99,29.80,18,3,18,0.39
2013-9-29,79,59,44,59,48,42,94,73,38,30.03,29.90,11,1,11,0.00
2013-9-30,82,63,48,58,52,44,86,69,42,29.91,29.73,16,4,16,0.00